createdAt,value
2018-12-01T00:01:00.202Z,22.74
2018-12-01T00:03:27.867Z,22.74
2018-12-01T00:05:55.492Z,22.73
2018-12-01T00:08:23.110Z,22.75
2018-12-01T00:10:51.182Z,22.74
2018-12-01T00:13:18.815Z,22.74
2018-12-01T00:15:46.452Z,22.70
2018-12-01T00:18:14.075Z,22.70
2018-12-01T00:20:41.723Z,22.70
2018-12-01T00:23:09.346Z,22.76
2018-12-01T00:25:36.988Z,22.72
2018-12-01T00:28:04.843Z,22.75
2018-12-01T00:30:32.484Z,22.70
2018-12-01T00:33:00.096Z,22.70
2018-12-01T00:35:27.714Z,22.73
2018-12-01T00:37:55.346Z,22.73
2018-12-01T00:40:22.989Z,22.68
2018-12-01T00:42:50.624Z,22.68
2018-12-01T00:45:19.633Z,22.72
2018-12-01T00:47:48.811Z,22.70
2018-12-01T00:50:16.971Z,22.66
2018-12-01T00:52:44.824Z,22.66
2018-12-01T00:55:14.035Z,22.64
2018-12-01T00:57:41.687Z,22.68
2018-12-01T01:00:14.907Z,22.70
2018-12-01T01:02:42.654Z,22.66
2018-12-01T01:05:10.270Z,22.66
2018-12-01T01:07:37.902Z,22.66
2018-12-01T01:10:07.480Z,22.66
2018-12-01T01:12:35.117Z,22.60
2018-12-01T01:15:02.793Z,22.60
2018-12-01T01:17:30.433Z,22.63
2018-12-01T01:19:58.062Z,22.64
2018-12-01T01:22:25.687Z,22.62
2018-12-01T01:24:53.373Z,22.66
2018-12-01T01:27:21.007Z,22.55
2018-12-01T01:29:48.639Z,22.58
2018-12-01T01:32:16.301Z,22.60
2018-12-01T01:34:43.932Z,22.61
2018-12-01T01:37:11.558Z,22.61
2018-12-01T01:39:39.183Z,22.55
2018-12-01T01:42:06.822Z,22.52
2018-12-01T01:44:34.449Z,22.56
2018-12-01T01:47:02.088Z,22.54
2018-12-01T01:49:29.734Z,22.57
2018-12-01T01:51:57.393Z,22.48
2018-12-01T01:54:25.011Z,22.51
2018-12-01T01:56:52.657Z,22.52
2018-12-01T01:59:20.517Z,22.52
2018-12-01T02:01:48.130Z,22.52
2018-12-01T02:04:15.747Z,22.50
2018-12-01T02:06:43.367Z,22.53
2018-12-01T02:09:10.991Z,22.53
2018-12-01T02:11:38.644Z,22.55
2018-12-01T02:14:06.263Z,22.55
2018-12-01T02:16:33.907Z,22.47
2018-12-01T02:19:01.535Z,22.52
2018-12-01T02:21:29.167Z,22.53
2018-12-01T02:23:56.805Z,22.53
2018-12-01T02:26:24.435Z,22.55
2018-12-01T02:28:52.051Z,22.55
2018-12-01T02:31:19.670Z,22.49
2018-12-01T02:33:47.306Z,22.51
2018-12-01T02:36:14.929Z,22.56
2018-12-01T02:38:42.568Z,22.46
2018-12-01T02:41:10.247Z,22.44
2018-12-01T02:43:37.896Z,22.40
2018-12-01T02:46:11.196Z,22.45
2018-12-01T02:48:38.834Z,22.43
2018-12-01T02:51:06.534Z,22.41
2018-12-01T02:53:34.155Z,22.40
2018-12-01T02:56:01.771Z,22.39
2018-12-01T02:58:29.406Z,22.48
2018-12-01T03:00:57.028Z,22.45
2018-12-01T03:03:24.683Z,22.35
2018-12-01T03:05:52.412Z,22.44
2018-12-01T03:08:20.054Z,22.44
2018-12-01T03:10:47.699Z,22.41
2018-12-01T03:13:15.317Z,22.36
2018-12-01T03:15:42.935Z,22.37
2018-12-01T03:18:13.589Z,22.42
2018-12-01T03:20:38.235Z,22.41
2018-12-01T03:23:05.971Z,22.44
2018-12-01T03:25:33.607Z,22.37
2018-12-01T03:28:01.234Z,22.39
2018-12-01T03:30:28.860Z,22.34
2018-12-01T03:32:56.495Z,22.37
2018-12-01T03:35:24.501Z,22.41
2018-12-01T03:37:52.336Z,22.30
2018-12-01T03:40:20.407Z,22.31
2018-12-01T03:42:48.191Z,22.34
2018-12-01T03:45:17.189Z,22.26
2018-12-01T03:47:44.811Z,22.08
2018-12-01T03:50:14.012Z,22.32
2018-12-01T03:52:41.692Z,22.29
2018-12-01T03:55:21.586Z,22.33
2018-12-01T03:57:49.212Z,22.37
2018-12-01T04:00:16.906Z,22.38
2018-12-01T04:02:44.570Z,22.35
2018-12-01T04:05:12.240Z,22.32
2018-12-01T04:07:39.879Z,22.33
2018-12-01T04:10:07.514Z,22.33
2018-12-01T04:12:35.135Z,22.36
2018-12-01T04:15:02.765Z,22.33
2018-12-01T04:17:30.399Z,22.34
2018-12-01T04:19:58.080Z,22.32
2018-12-01T04:22:25.704Z,22.28
2018-12-01T04:24:53.374Z,22.27
2018-12-01T04:27:21.028Z,22.29
2018-12-01T04:29:48.720Z,22.31
2018-12-01T04:32:16.375Z,22.30
2018-12-01T04:34:44.008Z,22.33
2018-12-01T04:37:11.638Z,22.25
2018-12-01T04:39:39.271Z,22.28
2018-12-01T04:42:06.915Z,22.28
2018-12-01T04:44:34.565Z,22.31
2018-12-01T04:47:02.180Z,22.32
2018-12-01T04:49:29.832Z,22.27
2018-12-01T04:51:57.468Z,22.25
2018-12-01T04:54:25.111Z,22.26
2018-12-01T04:56:52.748Z,22.25
2018-12-01T04:59:20.376Z,22.23
2018-12-01T05:01:48.091Z,22.22
2018-12-01T05:04:15.719Z,22.22
2018-12-01T05:06:43.439Z,22.24
2018-12-01T05:09:11.072Z,22.19
2018-12-01T05:11:38.695Z,22.21
2018-12-01T05:14:06.402Z,22.23
2018-12-01T05:16:34.032Z,22.20
2018-12-01T05:19:01.754Z,22.17
2018-12-01T05:21:29.395Z,22.21
2018-12-01T05:23:57.065Z,22.16
2018-12-01T05:26:24.724Z,22.17
2018-12-01T05:28:52.375Z,22.13
2018-12-01T05:31:20.023Z,22.13
2018-12-01T05:33:47.638Z,22.16
2018-12-01T05:36:15.267Z,21.56
2018-12-01T05:38:42.887Z,22.15
2018-12-01T05:41:10.587Z,22.15
2018-12-01T05:43:38.234Z,22.15
2018-12-01T05:46:05.887Z,22.13
2018-12-01T05:48:33.540Z,22.06
2018-12-01T05:51:01.245Z,22.08
2018-12-01T05:53:28.907Z,22.10
2018-12-01T05:55:56.526Z,22.12
2018-12-01T05:58:24.252Z,22.12
2018-12-01T06:00:51.870Z,22.04
2018-12-01T06:03:19.493Z,22.04
2018-12-01T06:05:47.204Z,22.04
2018-12-01T06:08:14.828Z,22.04
2018-12-01T06:10:42.467Z,22.00
2018-12-01T06:13:10.088Z,21.79
2018-12-01T06:15:37.752Z,22.09
2018-12-01T06:18:05.676Z,22.02
2018-12-01T06:20:33.300Z,22.08
2018-12-01T06:23:00.940Z,22.04
2018-12-01T06:25:28.567Z,21.95
2018-12-01T06:27:56.304Z,21.98
2018-12-01T06:30:23.940Z,21.94
2018-12-01T06:32:51.876Z,22.01
2018-12-01T06:35:19.497Z,22.04
2018-12-01T06:37:47.128Z,22.01
2018-12-01T06:40:16.143Z,22.00
2018-12-01T06:42:43.800Z,22.02
2018-12-01T06:45:12.811Z,21.99
2018-12-01T06:47:40.431Z,22.02
2018-12-01T06:50:13.475Z,22.04
2018-12-01T06:52:41.181Z,21.98
2018-12-01T06:55:09.471Z,22.00
2018-12-01T06:57:37.077Z,22.03
2018-12-01T07:00:06.077Z,22.03
2018-12-01T07:02:33.727Z,22.03
2018-12-01T07:05:01.359Z,21.98
2018-12-01T07:07:28.975Z,22.04
2018-12-01T07:09:56.667Z,21.99
2018-12-01T07:12:24.376Z,21.98
2018-12-01T07:14:52.008Z,21.98
2018-12-01T07:17:19.740Z,22.00
2018-12-01T07:19:47.408Z,22.00
2018-12-01T07:22:15.105Z,21.97
2018-12-01T07:24:42.739Z,21.97
2018-12-01T07:27:10.569Z,22.04
2018-12-01T07:29:38.359Z,21.98
2018-12-01T07:32:06.202Z,21.98
2018-12-01T07:34:34.052Z,21.94
2018-12-01T07:37:01.827Z,22.00
2018-12-01T07:39:29.668Z,21.97
2018-12-01T07:41:57.463Z,21.98
2018-12-01T07:44:25.406Z,21.99
2018-12-01T07:46:53.349Z,22.03
2018-12-01T07:49:21.110Z,21.96
2018-12-01T07:51:48.953Z,21.90
2018-12-01T07:54:16.807Z,21.94
2018-12-01T07:56:44.693Z,21.99
2018-12-01T07:59:12.510Z,21.94
2018-12-01T08:01:40.555Z,21.93
2018-12-01T08:04:08.302Z,21.97
2018-12-01T08:06:35.938Z,21.98
2018-12-01T08:09:03.795Z,21.98
2018-12-01T08:11:31.424Z,21.98
2018-12-01T08:13:59.165Z,21.68
2018-12-01T08:16:26.817Z,21.93
2018-12-01T08:18:54.470Z,21.94
2018-12-01T08:21:22.104Z,21.94
2018-12-01T08:23:49.821Z,21.98
2018-12-01T08:26:17.507Z,21.94
2018-12-01T08:28:45.169Z,21.91
2018-12-01T08:31:12.803Z,21.96
2018-12-01T08:33:40.483Z,21.92
2018-12-01T08:36:08.107Z,21.96
2018-12-01T08:38:35.723Z,21.96
2018-12-01T08:41:03.455Z,21.93
2018-12-01T08:43:31.090Z,21.94
2018-12-01T08:45:58.746Z,22.00
2018-12-01T08:48:26.383Z,21.91
2018-12-01T08:50:57.376Z,21.92
2018-12-01T08:53:25.007Z,21.93
2018-12-01T08:55:52.724Z,21.90
2018-12-01T08:58:20.359Z,21.86
2018-12-01T09:00:47.984Z,21.95
2018-12-01T09:03:17.420Z,21.91
2018-12-01T09:05:45.054Z,21.98
2018-12-01T09:08:12.691Z,21.97
2018-12-01T09:10:40.317Z,21.98
2018-12-01T09:13:07.936Z,21.91
2018-12-01T09:15:36.943Z,21.96
2018-12-01T09:18:03.380Z,21.93
2018-12-01T09:20:31.092Z,21.90
2018-12-01T09:22:58.831Z,21.89
2018-12-01T09:25:26.467Z,21.88
2018-12-01T09:27:54.083Z,21.89
2018-12-01T09:30:22.423Z,21.89
2018-12-01T09:32:50.070Z,21.88
2018-12-01T09:35:17.753Z,21.89
2018-12-01T09:37:45.394Z,21.95
2018-12-01T09:40:13.699Z,21.94
2018-12-01T09:42:41.374Z,21.91
2018-12-01T09:45:09.619Z,21.91
2018-12-01T09:47:37.278Z,21.95
2018-12-01T09:50:07.148Z,21.96
2018-12-01T09:52:34.863Z,21.94
2018-12-01T09:55:02.526Z,21.95
2018-12-01T09:57:30.173Z,21.98
2018-12-01T09:59:57.807Z,21.94
2018-12-01T10:02:25.447Z,21.94
2018-12-01T10:04:53.156Z,21.94
2018-12-01T10:07:20.793Z,21.93
2018-12-01T10:09:48.500Z,21.91
2018-12-01T10:12:16.190Z,21.96
2018-12-01T10:14:43.812Z,21.94
2018-12-01T10:17:11.439Z,21.98
2018-12-01T10:19:39.081Z,21.93
2018-12-01T10:22:06.709Z,22.00
2018-12-01T10:24:34.349Z,21.95
2018-12-01T10:27:02.051Z,22.02
2018-12-01T10:29:29.715Z,22.03
2018-12-01T10:31:57.330Z,21.91
2018-12-01T10:34:25.161Z,22.01
2018-12-01T10:36:52.796Z,22.00
2018-12-01T10:39:20.426Z,21.98
2018-12-01T10:41:48.057Z,21.99
2018-12-01T10:44:15.698Z,22.06
2018-12-01T10:46:43.335Z,22.05
2018-12-01T10:49:10.959Z,21.98
2018-12-01T10:51:38.683Z,22.00
2018-12-01T10:54:06.321Z,21.94
2018-12-01T10:56:33.955Z,22.04
2018-12-01T10:59:01.666Z,22.04
2018-12-01T11:01:33.113Z,22.09
2018-12-01T11:04:02.237Z,22.01
2018-12-01T11:06:29.951Z,22.02
2018-12-01T11:08:57.615Z,21.97
2018-12-01T11:11:25.244Z,21.97
2018-12-01T11:13:52.872Z,22.02
2018-12-01T11:16:20.535Z,21.97
2018-12-01T11:18:48.167Z,21.99
2018-12-01T11:21:15.831Z,22.07
2018-12-01T11:23:43.491Z,22.02
2018-12-01T11:26:11.132Z,21.98
2018-12-01T11:28:38.789Z,21.98
2018-12-01T11:31:06.445Z,22.00
2018-12-01T11:33:34.099Z,21.92
2018-12-01T11:36:01.740Z,22.01
2018-12-01T11:38:29.372Z,22.11
2018-12-01T11:40:57.023Z,22.10
2018-12-01T11:43:24.704Z,22.14
2018-12-01T11:45:52.345Z,22.11
2018-12-01T11:48:19.983Z,22.06
2018-12-01T11:50:47.633Z,22.09
2018-12-01T11:53:15.259Z,22.04
2018-12-01T11:55:42.887Z,22.04
2018-12-01T11:58:10.522Z,22.02
2018-12-01T12:00:38.151Z,21.95
2018-12-01T12:03:05.854Z,22.00
2018-12-01T12:05:33.483Z,22.01
2018-12-01T12:08:06.587Z,22.00
2018-12-01T12:10:34.223Z,21.97
2018-12-01T12:13:01.844Z,22.00
2018-12-01T12:15:29.466Z,22.01
2018-12-01T12:17:57.791Z,22.06
2018-12-01T12:20:25.470Z,22.06
2018-12-01T12:22:53.147Z,22.02
2018-12-01T12:25:20.763Z,21.98
2018-12-01T12:27:48.387Z,21.94
2018-12-01T12:30:16.528Z,22.00
2018-12-01T12:32:44.506Z,22.01
2018-12-01T12:35:12.751Z,22.00
2018-12-01T12:37:40.378Z,22.01
2018-12-01T12:40:09.216Z,22.00
2018-12-01T12:42:36.864Z,22.02
2018-12-01T12:45:04.939Z,22.04
2018-12-01T12:47:32.564Z,22.05
2018-12-01T12:50:00.267Z,21.95
2018-12-01T12:52:27.896Z,21.94
2018-12-01T12:54:55.552Z,21.98
2018-12-01T12:57:23.241Z,21.99
2018-12-01T12:59:50.869Z,21.94
2018-12-01T13:02:18.510Z,21.95
2018-12-01T13:04:46.132Z,21.98
2018-12-01T13:07:13.776Z,21.99
2018-12-01T13:09:41.408Z,21.98
2018-12-01T13:12:09.131Z,22.00
2018-12-01T13:14:36.789Z,22.00
2018-12-01T13:17:04.455Z,22.00
2018-12-01T13:19:32.098Z,22.00
2018-12-01T13:21:59.728Z,22.02
2018-12-01T13:24:27.408Z,21.98
2018-12-01T13:26:55.067Z,22.02
2018-12-01T13:29:22.755Z,21.92
2018-12-01T13:31:54.536Z,21.94
2018-12-01T13:34:18.088Z,21.95
2018-12-01T13:36:45.724Z,21.99
2018-12-01T13:39:13.408Z,21.95
2018-12-01T13:41:41.062Z,21.98
2018-12-01T13:44:08.690Z,21.98
2018-12-01T13:46:36.361Z,21.94
2018-12-01T13:49:03.998Z,21.90
2018-12-01T13:51:31.658Z,21.95
2018-12-01T13:53:59.287Z,21.92
2018-12-01T13:56:26.915Z,21.92
2018-12-01T13:58:54.584Z,21.92
2018-12-01T14:01:22.250Z,21.98
2018-12-01T14:03:49.879Z,21.94
2018-12-01T14:06:17.507Z,21.94
2018-12-01T14:08:45.144Z,21.99
2018-12-01T14:11:12.807Z,21.95
2018-12-01T14:13:40.436Z,22.01
2018-12-01T14:16:08.083Z,21.91
2018-12-01T14:18:35.726Z,21.94
2018-12-01T14:21:03.352Z,21.87
2018-12-01T14:23:30.990Z,21.93
2018-12-01T14:25:58.635Z,21.97
2018-12-01T14:28:26.253Z,21.95
2018-12-01T14:30:53.892Z,21.96
2018-12-01T14:33:21.627Z,21.98
2018-12-01T14:35:49.280Z,21.94
2018-12-01T14:38:17.559Z,21.89
2018-12-01T14:40:45.784Z,21.92
2018-12-01T14:43:13.410Z,21.91
2018-12-01T14:45:41.417Z,21.94
2018-12-01T14:48:09.057Z,21.93
2018-12-01T14:50:36.692Z,21.95
2018-12-01T14:53:04.339Z,21.93
2018-12-01T14:55:32.006Z,21.97
2018-12-01T14:57:59.656Z,21.92
2018-12-01T15:00:27.292Z,21.97
2018-12-01T15:02:55.412Z,21.92
2018-12-01T15:05:23.381Z,21.87
2018-12-01T15:07:51.035Z,21.88
2018-12-01T15:10:24.103Z,21.86
2018-12-01T15:12:51.747Z,21.84
2018-12-01T15:15:20.140Z,21.86
2018-12-01T15:17:47.764Z,21.85
2018-12-01T15:20:17.025Z,21.81
2018-12-01T15:22:45.227Z,21.86
2018-12-01T15:25:15.432Z,21.81
2018-12-01T15:27:43.068Z,21.86
2018-12-01T15:30:14.397Z,21.89
2018-12-01T15:32:42.472Z,21.87
2018-12-01T15:35:11.758Z,21.87
2018-12-01T15:37:39.387Z,21.91
2018-12-01T15:40:10.039Z,21.84
2018-12-01T15:42:37.671Z,21.86
2018-12-01T15:45:05.709Z,21.80
2018-12-01T15:47:33.371Z,21.79
2018-12-01T15:50:01.035Z,21.79
2018-12-01T15:52:28.712Z,21.82
2018-12-01T15:54:56.348Z,21.82
2018-12-01T15:57:24.020Z,21.82
2018-12-01T15:59:51.667Z,21.83
2018-12-01T16:02:19.330Z,21.73
2018-12-01T16:04:46.967Z,21.82
2018-12-01T16:07:14.667Z,21.78
2018-12-01T16:09:42.304Z,21.76
2018-12-01T16:12:09.955Z,21.75
2018-12-01T16:14:37.587Z,21.78
2018-12-01T16:17:05.275Z,21.78
2018-12-01T16:19:32.894Z,21.80
2018-12-01T16:22:00.536Z,21.80
2018-12-01T16:24:28.205Z,21.79
2018-12-01T16:26:56.001Z,21.80
2018-12-01T16:29:23.994Z,21.77
2018-12-01T16:31:51.916Z,21.77
2018-12-01T16:34:19.563Z,21.76
2018-12-01T16:36:47.216Z,21.76
2018-12-01T16:39:14.915Z,21.73
2018-12-01T16:41:42.567Z,21.77
2018-12-01T16:44:10.219Z,21.71
2018-12-01T16:46:37.878Z,21.77
2018-12-01T16:49:05.524Z,21.75
2018-12-01T16:51:33.159Z,21.78
2018-12-01T16:54:00.808Z,21.73
2018-12-01T16:56:28.433Z,21.74
2018-12-01T16:58:56.050Z,21.73
2018-12-01T17:01:23.669Z,21.78
2018-12-01T17:03:51.635Z,21.75
2018-12-01T17:06:19.467Z,21.81
2018-12-01T17:08:47.438Z,21.70
2018-12-01T17:11:15.095Z,21.71
2018-12-01T17:13:43.578Z,21.73
2018-12-01T17:16:11.259Z,21.69
2018-12-01T17:18:38.898Z,21.68
2018-12-01T17:21:06.653Z,21.70
2018-12-01T17:23:34.376Z,21.70
2018-12-01T17:26:02.020Z,21.73
2018-12-01T17:28:29.699Z,21.72
2018-12-01T17:30:57.314Z,21.70
2018-12-01T17:33:24.940Z,21.71
2018-12-01T17:35:52.565Z,21.71
2018-12-01T17:38:20.821Z,21.68
2018-12-01T17:40:53.790Z,21.68
2018-12-01T17:43:22.555Z,21.69
2018-12-01T17:45:50.207Z,21.70
2018-12-01T17:48:17.831Z,21.71
2018-12-01T17:50:45.451Z,21.70
2018-12-01T17:53:13.090Z,21.71
2018-12-01T17:55:40.711Z,21.69
2018-12-01T17:58:09.224Z,21.70
2018-12-01T18:00:36.876Z,21.71
2018-12-01T18:03:04.515Z,21.71
2018-12-01T18:05:39.487Z,21.69
2018-12-01T18:08:08.255Z,21.65
2018-12-01T18:10:35.904Z,21.26
2018-12-01T18:13:03.556Z,21.66
2018-12-01T18:15:31.216Z,21.68
2018-12-01T18:17:58.843Z,21.67
2018-12-01T18:20:26.482Z,21.68
2018-12-01T18:23:03.011Z,21.66
2018-12-01T18:25:35.771Z,21.66
2018-12-01T18:28:03.398Z,21.65
2018-12-01T18:30:32.664Z,21.67
2018-12-01T18:33:02.335Z,21.64
2018-12-01T18:35:30.015Z,21.64
2018-12-01T18:37:57.714Z,21.67
2018-12-01T18:40:25.369Z,21.63
2018-12-01T18:42:53.011Z,21.61
2018-12-01T18:45:21.275Z,21.66
2018-12-01T18:47:48.982Z,21.62
2018-12-01T18:50:17.044Z,21.67
2018-12-01T18:52:48.871Z,21.56
2018-12-01T18:55:16.538Z,21.67
2018-12-01T18:57:44.172Z,21.61
2018-12-01T19:00:12.817Z,21.62
2018-12-01T19:02:40.451Z,21.63
2018-12-01T19:05:08.179Z,21.62
2018-12-01T19:07:35.827Z,21.59
2018-12-01T19:10:03.743Z,21.59
2018-12-01T19:12:31.405Z,21.61
2018-12-01T19:14:59.043Z,21.65
2018-12-01T19:17:26.708Z,21.62
2018-12-01T19:19:55.209Z,21.61
2018-12-01T19:22:22.054Z,21.61
2018-12-01T19:24:49.689Z,21.60
2018-12-01T19:27:17.398Z,21.59
2018-12-01T19:29:45.033Z,21.61
2018-12-01T19:32:12.663Z,21.60
2018-12-01T19:34:40.295Z,21.61
2018-12-01T19:37:07.943Z,21.59
2018-12-01T19:39:35.567Z,21.62
2018-12-01T19:42:03.198Z,21.62
2018-12-01T19:44:30.992Z,21.63
2018-12-01T19:46:58.624Z,21.59
2018-12-01T19:49:26.336Z,21.59
2018-12-01T19:51:53.997Z,21.62
2018-12-01T19:54:21.687Z,21.61
2018-12-01T19:56:50.109Z,21.60
2018-12-01T19:59:17.742Z,21.66
2018-12-01T20:01:45.392Z,21.27
2018-12-01T20:04:13.040Z,21.62
2018-12-01T20:06:40.676Z,21.60
2018-12-01T20:09:08.677Z,21.59
2018-12-01T20:11:36.319Z,21.63
2018-12-01T20:14:05.107Z,21.62
2018-12-01T20:16:34.857Z,21.64
2018-12-01T20:19:02.507Z,21.57
2018-12-01T20:21:30.147Z,21.60
2018-12-01T20:23:57.793Z,21.60
2018-12-01T20:26:25.427Z,21.61
2018-12-01T20:28:53.160Z,21.62
2018-12-01T20:31:20.886Z,21.61
2018-12-01T20:33:48.556Z,21.63
2018-12-01T20:36:19.238Z,21.63
2018-12-01T20:38:49.823Z,21.62
2018-12-01T20:41:17.482Z,21.65
2018-12-01T20:43:45.124Z,21.61
2018-12-01T20:46:12.755Z,21.57
2018-12-01T20:48:40.410Z,21.57
2018-12-01T20:51:08.057Z,21.55
2018-12-01T20:53:35.925Z,21.50
2018-12-01T20:56:04.775Z,21.52
2018-12-01T20:58:32.529Z,21.49
2018-12-01T21:01:00.227Z,21.52
2018-12-01T21:03:27.896Z,21.53
2018-12-01T21:05:55.528Z,21.52
2018-12-01T21:08:27.901Z,21.55
2018-12-01T21:10:52.031Z,21.51
2018-12-01T21:13:19.669Z,21.48
2018-12-01T21:15:47.278Z,21.47
2018-12-01T21:18:14.931Z,21.46
2018-12-01T21:20:42.587Z,21.48
2018-12-01T21:23:10.252Z,21.49
2018-12-01T21:25:37.984Z,21.42
2018-12-01T21:28:05.832Z,21.46
2018-12-01T21:30:33.452Z,21.45
2018-12-01T21:33:07.328Z,21.44
2018-12-01T21:35:34.972Z,21.43
2018-12-01T21:38:02.661Z,21.42
2018-12-01T21:40:30.316Z,21.38
2018-12-01T21:42:58.145Z,21.41
2018-12-01T21:45:25.792Z,21.44
2018-12-01T21:47:53.512Z,21.41
2018-12-01T21:50:21.689Z,21.44
2018-12-01T21:52:50.261Z,21.38
2018-12-01T21:55:17.921Z,21.38
2018-12-01T21:57:46.180Z,21.37
2018-12-01T22:00:15.419Z,21.37
2018-12-01T22:02:43.342Z,21.38
2018-12-01T22:05:12.837Z,21.34
2018-12-01T22:07:40.500Z,21.37
2018-12-01T22:10:11.975Z,21.35
2018-12-01T22:12:39.631Z,21.32
2018-12-01T22:15:08.712Z,21.33
2018-12-01T22:17:36.349Z,21.31
2018-12-01T22:20:04.632Z,21.34
2018-12-01T22:22:32.260Z,21.34
2018-12-01T22:24:59.892Z,21.31
2018-12-01T22:27:27.522Z,21.31
2018-12-01T22:29:55.186Z,21.33
2018-12-01T22:32:22.856Z,21.34
2018-12-01T22:34:50.511Z,21.34
2018-12-01T22:37:18.143Z,21.33
2018-12-01T22:39:45.807Z,21.30
2018-12-01T22:42:13.603Z,21.32
2018-12-01T22:44:41.305Z,21.28
2018-12-01T22:47:09.277Z,21.33
2018-12-01T22:49:37.139Z,21.01
2018-12-01T22:52:04.864Z,21.39
2018-12-01T22:54:32.721Z,21.33
2018-12-01T22:57:00.669Z,21.37
2018-12-01T22:59:28.735Z,21.33
2018-12-01T23:01:56.688Z,21.30
2018-12-01T23:04:24.538Z,21.33
2018-12-01T23:06:52.401Z,21.33
2018-12-01T23:09:20.219Z,21.29
2018-12-01T23:11:47.848Z,21.31
2018-12-01T23:14:15.469Z,21.32
2018-12-01T23:16:43.186Z,21.30
2018-12-01T23:19:10.803Z,21.30
2018-12-01T23:21:38.432Z,21.28
2018-12-01T23:24:06.116Z,21.33
2018-12-01T23:26:33.780Z,21.29
2018-12-01T23:29:01.462Z,21.33
2018-12-01T23:31:29.101Z,21.31
2018-12-01T23:33:56.881Z,21.30
2018-12-01T23:36:24.544Z,21.28
2018-12-01T23:38:52.229Z,21.29
2018-12-01T23:41:19.864Z,21.35
2018-12-01T23:43:47.557Z,21.29
2018-12-01T23:46:15.191Z,21.27
2018-12-01T23:48:42.815Z,21.23
2018-12-01T23:51:10.443Z,21.22
2018-12-01T23:53:38.075Z,21.30
2018-12-01T23:56:06.028Z,21.30
2018-12-01T23:58:33.673Z,21.32
